Cross City, FL

2:16 PM EDT on September 22, 2014 (GMT -0400)
Cross City | Change Station
CLOSE
Current Station
Airport
Location: Cross City,
Elevation: 43 ft
Nearby Weather Stations

Elev 43 ft 29.64 °N, 83.10 °W | Updated 23 minutes ago

Partly Cloudy
Partly Cloudy
88 °F
Feels Like 95 °F
N
4
Wind Variable Wind from SSW
Gusts 10 mph

Today
High -- | Low -- °F
--% Chance of Precip.
Yesterday
High -- | Low -- °F
Precip. -- in
7:20 AM 7:28 PM
Waning Crescent, 2% visible
Pressure 29.97 in
Visibility -9999.0 miles
Clouds
Heat Index 95 °F
Dew Point 72 °F
Humidity 59%
Rainfall 0.05 in
Snow Depth Not available.
UV Not available.
Pollen 8.60 out of 12
Air Quality Not available.
Flu Activity Not available.
METAR KCTY 221753Z AUTO 20003KT 31/22 A2998 RMK AO1 SLP149 60002 T03110222 10317 20194 58020

More Conditions Fewer Conditions

Pressure 29.97 in
Visibility -9999.0 miles
Clouds
Heat Index 95 °F
Dew Point 72 °F
Humidity 59%
Rainfall 0.05 in
Snow Depth Not available.
UV Not available.
Pollen 8.60 out of 12
Air Quality Not available.
Flu Activity Not available.
METAR KCTY 221753Z AUTO 20003KT 31/22 A2998 RMK AO1 SLP149 60002 T03110222 10317 20194 58020

More Conditions Fewer Conditions

10-Day Weather Forecast

Almanac

Astronomy

Sep. 22, 2014 Rise Set
Actual Time 7:20 AM EDT 7:28 PM EDT
Civil Twilight 6:56 AM EDT 7:52 PM EDT
Nautical Twilight 6:29 AM EDT 8:20 PM EDT
Astronomical Twilight 6:01 AM EDT 8:48 PM EDT
Moon 5:53 AM EDT 6:33 PM EDT
Length of Visible Light 12h 55m
Length of Day
12h 08m
Tomorrow will be 1m 47s shorter.
Waning Crescent, 2% of the Moon is Illuminated
Today
Waning Crescent
Sep 24
New
Oct 1
First Quarter
Oct 8
Full
Oct 15
Last Quarter

Today's Extremes

State Highs State Lows

Community

WunderPhotos

Upload Photos

1,755,498 photos uploaded!

WunderBlogs® & News

By Dr. Jeff Masters
Director of Meteorology, Weather Underground
By Kari Strenfel
Meteorologist, Weather Underground
By Christopher C. Burt
Weather Historian, Weather Underground
September 22, 2014
September 22, 2014
September 22, 2014

Nearby

Snow Depth

Station Depth Elevation
No new snow has been reported.

Earthquake Activity

City Distance Mag. Time & Date
No recent earthquake activity has been reported nearby.
Minimum magnitude displayed is 2.5.

Coastal Water Temperatures

Place Temperature
No Stations Reporting

Nearby Weather Stations